createdAt,value
2019-04-30T00:04:07.339Z,97.31
2019-04-30T00:10:12.318Z,97.18
2019-04-30T00:16:16.873Z,97.06
2019-04-30T00:22:30.926Z,96.71
2019-04-30T00:35:55.161Z,93.53
2019-04-30T00:41:57.050Z,93.55
2019-04-30T00:48:01.720Z,94.27
2019-04-30T00:54:06.335Z,94.76
2019-04-30T01:00:16.956Z,95.12
2019-04-30T01:06:24.717Z,95.14
2019-04-30T01:12:30.967Z,98.49
2019-04-30T01:18:32.774Z,97.84
2019-04-30T01:24:38.677Z,98.18
2019-04-30T01:30:43.673Z,97.40
2019-04-30T01:36:52.088Z,97.79
2019-04-30T01:42:54.617Z,97.64
2019-04-30T01:48:59.175Z,97.25
2019-04-30T01:55:03.801Z,97.08
2019-04-30T02:01:10.066Z,97.47
2019-04-30T02:07:14.632Z,97.08
2019-04-30T02:13:19.173Z,96.11
2019-04-30T02:19:23.727Z,95.28
2019-04-30T02:25:29.568Z,95.86
2019-04-30T02:31:34.352Z,94.01
2019-04-30T02:37:43.572Z,94.06
2019-04-30T02:43:49.782Z,93.70
2019-04-30T02:50:11.396Z,94.98
2019-04-30T02:56:02.579Z,95.90
2019-04-30T03:02:11.476Z,96.11
2019-04-30T03:08:13.522Z,95.94
2019-04-30T03:14:20.093Z,95.96
2019-04-30T03:20:35.671Z,96.60
2019-04-30T03:26:34.830Z,95.13
2019-04-30T03:32:43.141Z,93.73
2019-04-30T03:38:45.691Z,94.41
2019-04-30T03:44:50.245Z,94.34
2019-04-30T03:50:57.018Z,94.68
2019-04-30T03:57:01.202Z,94.45
2019-04-30T04:03:06.043Z,94.23
2019-04-30T04:09:21.932Z,94.53
2019-04-30T04:15:24.346Z,96.20
2019-04-30T04:21:29.976Z,97.09
2019-04-30T04:27:34.817Z,98.04
2019-04-30T04:33:39.612Z,97.33
2019-04-30T04:39:44.310Z,98.03
2019-04-30T04:45:49.830Z,98.46
2019-04-30T04:51:54.793Z,97.95
2019-04-30T04:57:59.866Z,97.46
2019-04-30T05:04:04.851Z,97.40
2019-04-30T05:10:10.132Z,97.18
2019-04-30T05:16:14.672Z,97.52
2019-04-30T05:22:19.297Z,97.54
2019-04-30T05:28:23.869Z,97.35
2019-04-30T05:34:28.835Z,97.37
2019-04-30T05:40:33.580Z,97.42
2019-04-30T05:46:39.743Z,97.36
2019-04-30T05:52:44.496Z,96.98
2019-04-30T05:58:49.501Z,96.32
2019-04-30T06:04:54.145Z,95.69
2019-04-30T06:11:00.391Z,94.78
2019-04-30T06:17:09.900Z,93.77
2019-04-30T06:23:14.778Z,90.79
2019-04-30T06:29:19.567Z,87.43
2019-04-30T06:35:24.961Z,84.29
2019-04-30T06:41:29.737Z,85.28
2019-04-30T06:47:34.676Z,83.47
2019-04-30T06:53:39.293Z,78.88
2019-04-30T06:59:43.912Z,80.58
2019-04-30T07:05:48.899Z,79.65
2019-04-30T07:11:53.416Z,77.24
2019-04-30T07:17:59.092Z,77.48
2019-04-30T07:24:03.812Z,71.19
2019-04-30T07:30:09.939Z,70.69
2019-04-30T07:36:14.768Z,70.98
2019-04-30T07:42:19.401Z,66.90
2019-04-30T07:48:26.562Z,68.90
2019-04-30T07:54:30.263Z,66.86
2019-04-30T08:00:34.957Z,66.87
2019-04-30T08:06:39.946Z,64.70
2019-04-30T08:12:45.386Z,61.84
2019-04-30T08:18:50.380Z,62.15
2019-04-30T08:24:54.940Z,61.83
2019-04-30T08:30:59.489Z,60.71
2019-04-30T08:37:16.762Z,59.41
2019-04-30T08:43:10.414Z,61.31
2019-04-30T08:49:16.090Z,57.10
2019-04-30T08:55:22.449Z,61.67
2019-04-30T09:01:29.225Z,57.18
2019-04-30T09:07:33.728Z,59.36
2019-04-30T09:13:38.967Z,55.11
2019-04-30T09:19:43.674Z,56.51
2019-04-30T09:25:49.675Z,53.64
2019-04-30T09:31:54.488Z,52.67
2019-04-30T09:38:01.881Z,53.78
2019-04-30T09:44:05.750Z,52.57
2019-04-30T09:50:13.564Z,49.78
2019-04-30T09:56:19.342Z,50.62
2019-04-30T10:02:24.109Z,50.40
2019-04-30T10:08:30.735Z,49.18
2019-04-30T10:14:35.325Z,48.55
2019-04-30T10:20:43.775Z,44.82
2019-04-30T10:26:48.335Z,46.73
2019-04-30T10:32:52.873Z,44.84
2019-04-30T10:38:59.329Z,42.85
2019-04-30T10:45:05.389Z,42.59
2019-04-30T10:51:10.086Z,43.34
2019-04-30T10:57:14.708Z,39.94
2019-04-30T11:03:22.853Z,39.62
2019-04-30T11:09:30.691Z,39.36
2019-04-30T11:15:34.021Z,41.25
2019-04-30T11:21:38.770Z,38.60
2019-04-30T11:27:44.060Z,37.23
2019-04-30T11:33:49.276Z,36.94
2019-04-30T11:39:54.142Z,39.39
2019-04-30T11:46:22.328Z,37.12
2019-04-30T11:52:26.901Z,36.10
2019-04-30T11:58:31.495Z,36.15
2019-04-30T12:04:36.079Z,34.93
2019-04-30T12:10:45.050Z,34.09
2019-04-30T12:16:50.687Z,33.71
2019-04-30T12:22:55.367Z,31.35
2019-04-30T12:28:59.921Z,30.57
2019-04-30T12:35:07.215Z,29.92
2019-04-30T12:41:11.871Z,28.68
2019-04-30T12:47:19.292Z,27.34
2019-04-30T12:53:30.550Z,28.81
2019-04-30T12:59:35.644Z,29.31
2019-04-30T13:05:40.264Z,31.54
2019-04-30T13:11:45.259Z,27.30
2019-04-30T13:17:50.257Z,29.68
2019-04-30T13:23:54.802Z,28.33
2019-04-30T13:30:03.670Z,28.66
2019-04-30T13:36:08.770Z,28.79
2019-04-30T13:42:29.242Z,28.44
2019-04-30T13:48:33.622Z,32.35
2019-04-30T13:54:38.261Z,31.47
2019-04-30T14:00:42.885Z,31.30
2019-04-30T14:06:48.747Z,31.46
2019-04-30T14:12:57.992Z,28.99
2019-04-30T14:19:02.639Z,32.47
2019-04-30T14:25:08.323Z,31.01
2019-04-30T14:31:12.875Z,29.84
2019-04-30T14:37:17.442Z,29.83
2019-04-30T14:43:26.455Z,30.33
2019-04-30T14:49:36.084Z,32.64
2019-04-30T14:55:45.094Z,30.75
2019-04-30T15:01:54.091Z,29.56
2019-04-30T15:08:00.699Z,31.55
2019-04-30T15:14:05.613Z,29.45
2019-04-30T15:20:10.787Z,29.58
2019-04-30T15:26:22.115Z,32.16
2019-04-30T15:32:21.764Z,30.98
2019-04-30T15:38:44.289Z,30.03
2019-04-30T15:44:49.642Z,29.56
2019-04-30T15:50:54.479Z,28.93
2019-04-30T15:57:00.451Z,28.11
2019-04-30T16:03:16.162Z,27.95
2019-04-30T16:09:28.442Z,33.79
2019-04-30T16:15:32.950Z,37.01
2019-04-30T16:21:37.582Z,33.87
2019-04-30T16:27:42.138Z,32.34
2019-04-30T16:33:48.685Z,33.95
2019-04-30T16:39:53.043Z,35.34
2019-04-30T16:45:58.890Z,36.08
2019-04-30T16:52:03.713Z,36.19
2019-04-30T16:58:08.976Z,34.33
2019-04-30T17:04:19.216Z,35.72
2019-04-30T17:10:25.598Z,36.63
2019-04-30T17:16:30.308Z,37.85
2019-04-30T17:22:34.865Z,38.33
2019-04-30T17:28:39.435Z,39.21
2019-04-30T17:34:44.022Z,40.77
2019-04-30T17:40:49.625Z,43.18
2019-04-30T17:46:54.420Z,45.06
2019-04-30T17:53:00.651Z,49.30
2019-04-30T17:59:05.621Z,52.19
2019-04-30T18:05:11.387Z,53.69
2019-04-30T18:11:16.157Z,56.17
2019-04-30T18:17:22.270Z,58.31
2019-04-30T18:23:28.480Z,60.23
2019-04-30T18:29:33.111Z,62.16
2019-04-30T18:35:38.804Z,64.27
2019-04-30T18:41:43.557Z,65.54
2019-04-30T18:47:48.135Z,66.52
2019-04-30T18:53:52.699Z,67.18
2019-04-30T18:59:59.112Z,68.21
2019-04-30T19:06:05.343Z,69.44
2019-04-30T19:12:19.434Z,70.12
2019-04-30T19:18:28.265Z,70.48
2019-04-30T19:24:32.902Z,70.33
2019-04-30T19:30:38.993Z,71.00
2019-04-30T19:36:43.673Z,71.94
2019-04-30T19:42:50.749Z,73.22
2019-04-30T19:48:54.566Z,75.18
2019-04-30T19:54:59.129Z,74.87
2019-04-30T20:01:03.832Z,74.93
2019-04-30T20:07:08.830Z,74.79
2019-04-30T20:13:13.496Z,74.84
2019-04-30T20:19:18.077Z,73.79
2019-04-30T20:25:22.695Z,74.54
2019-04-30T20:31:28.773Z,74.58
2019-04-30T20:37:35.139Z,73.52
2019-04-30T20:43:39.693Z,72.11
2019-04-30T20:49:44.279Z,71.73
2019-04-30T20:55:49.520Z,70.98
2019-04-30T21:01:54.231Z,69.80
2019-04-30T21:07:58.774Z,69.18
2019-04-30T21:14:03.782Z,69.41
2019-04-30T21:20:09.812Z,68.40
2019-04-30T21:26:14.434Z,69.00
2019-04-30T21:32:38.289Z,70.02
2019-04-30T21:38:43.295Z,71.30
2019-04-30T21:44:47.849Z,72.68
2019-04-30T21:50:52.410Z,73.43
2019-04-30T21:56:56.986Z,73.04
2019-04-30T22:03:01.804Z,73.88
2019-04-30T22:09:09.750Z,74.61
2019-04-30T22:15:14.762Z,76.02
2019-04-30T22:21:19.332Z,76.41
2019-04-30T22:27:23.900Z,76.36
2019-04-30T22:33:29.232Z,77.15
2019-04-30T22:39:36.394Z,76.51
2019-04-30T22:45:42.604Z,77.76
2019-04-30T22:51:47.163Z,77.77
2019-04-30T22:57:51.800Z,77.05
2019-04-30T23:04:00.430Z,76.72
2019-04-30T23:10:08.028Z,75.57
2019-04-30T23:16:13.252Z,75.20
2019-04-30T23:22:17.826Z,74.93
2019-04-30T23:28:22.499Z,74.56
2019-04-30T23:34:27.141Z,74.88
2019-04-30T23:40:52.398Z,75.89
2019-04-30T23:46:57.027Z,76.23
2019-04-30T23:53:01.614Z,76.31
2019-04-30T23:59:06.252Z,75.84
